createdAt,value
2022-09-10T12:47:50.287Z,52.59
2022-09-10T12:50:32.361Z,52.71
2022-09-10T12:53:19.417Z,52.65
2022-09-10T12:55:53.732Z,52.36
2022-09-10T12:58:24.128Z,52.55
2022-09-10T13:01:06.072Z,52.61
2022-09-10T13:03:35.369Z,52.33
2022-09-10T13:06:04.237Z,51.82
2022-09-10T13:08:33.662Z,52.31
2022-09-10T13:11:20.031Z,52.04
2022-09-10T13:13:52.653Z,51.89
2022-09-10T13:16:21.478Z,52.27
2022-09-10T13:18:56.807Z,52.26
2022-09-10T13:21:52.952Z,51.98
2022-09-10T13:24:39.848Z,52.10
2022-09-10T13:27:20.681Z,51.81
2022-09-10T13:29:49.020Z,52.01
2022-09-10T13:32:20.423Z,52.19
2022-09-10T13:35:20.234Z,52.07
2022-09-10T13:38:03.734Z,52.32
2022-09-10T13:41:10.915Z,52.39
2022-09-10T13:43:44.848Z,52.25
2022-09-10T13:46:14.782Z,52.60
2022-09-10T13:48:44.707Z,52.14
2022-09-10T13:51:18.156Z,52.04
2022-09-10T13:53:46.962Z,52.17
2022-09-10T13:56:17.846Z,52.42
2022-09-10T13:58:48.491Z,52.41
2022-09-10T14:01:16.544Z,52.42
2022-09-10T14:03:44.894Z,52.48
2022-09-10T14:06:16.790Z,52.16
2022-09-10T14:08:49.461Z,52.47
2022-09-10T14:11:19.282Z,52.29
2022-09-10T14:13:48.717Z,52.26
2022-09-10T14:16:19.048Z,52.23
2022-09-10T14:18:48.410Z,52.62
2022-09-10T14:21:17.692Z,52.30
2022-09-10T14:23:46.187Z,52.65
2022-09-10T14:26:17.263Z,52.30
2022-09-10T14:28:52.495Z,52.35
2022-09-10T14:31:22.594Z,52.62
2022-09-10T14:33:50.631Z,52.53
2022-09-10T14:36:22.238Z,52.87
2022-09-10T14:38:54.473Z,52.60
2022-09-10T14:41:24.763Z,52.85
2022-09-10T14:44:11.118Z,52.85
2022-09-10T14:46:50.278Z,53.11
2022-09-10T14:49:18.652Z,53.15
2022-09-10T14:51:48.050Z,53.22
2022-09-10T14:54:15.953Z,53.34
2022-09-10T14:56:44.944Z,53.03
2022-09-10T14:59:15.212Z,53.41
2022-09-10T15:01:43.380Z,53.45
2022-09-10T15:04:13.986Z,53.32
2022-09-10T15:06:43.592Z,53.60
2022-09-10T15:09:13.325Z,53.73
2022-09-10T15:11:44.595Z,53.57
2022-09-10T15:14:12.848Z,53.82
2022-09-10T15:16:40.837Z,53.71
2022-09-10T15:19:08.719Z,53.59
2022-09-10T15:21:36.596Z,53.67
2022-09-10T15:24:05.903Z,53.67
2022-09-10T15:26:35.151Z,53.83
2022-09-10T15:29:03.278Z,53.81
2022-09-10T15:31:32.866Z,53.52
2022-09-10T15:34:00.888Z,53.70
2022-09-10T15:36:28.797Z,53.41
2022-09-10T15:38:56.703Z,53.48
2022-09-10T15:41:24.573Z,53.48
2022-09-10T15:43:53.843Z,53.47
2022-09-10T15:46:24.433Z,53.33
2022-09-10T15:48:52.521Z,53.29
2022-09-10T15:51:23.065Z,53.41
2022-09-10T15:53:51.392Z,53.50
2022-09-10T15:56:19.501Z,53.39
2022-09-10T15:58:49.237Z,53.54
2022-09-10T16:01:18.679Z,53.49
2022-09-10T16:03:47.691Z,53.99
2022-09-10T16:06:15.805Z,53.62
2022-09-10T16:08:43.662Z,53.81
2022-09-10T16:11:12.790Z,53.88
2022-09-10T16:13:40.686Z,54.01
2022-09-10T16:16:09.924Z,53.74
2022-09-10T16:18:39.443Z,53.98
2022-09-10T16:21:09.509Z,54.05
2022-09-10T16:23:37.534Z,54.08
2022-09-10T16:26:06.056Z,54.24
2022-09-10T16:28:34.006Z,54.34
2022-09-10T16:31:12.815Z,54.35
2022-09-10T16:33:42.129Z,54.11
2022-09-10T16:36:10.891Z,54.18
2022-09-10T16:38:38.843Z,54.20
2022-09-10T16:41:07.531Z,54.44
2022-09-10T16:43:36.100Z,54.35
2022-09-10T16:46:04.196Z,54.34
2022-09-10T16:48:32.769Z,54.76
2022-09-10T16:51:06.418Z,54.47
2022-09-10T16:53:34.935Z,54.67
2022-09-10T16:56:03.224Z,54.60
2022-09-10T16:58:35.637Z,54.46
2022-09-10T17:01:03.864Z,54.76
2022-09-10T17:03:31.819Z,54.83
2022-09-10T17:06:00.105Z,54.72
2022-09-10T17:08:30.163Z,54.80
2022-09-10T17:10:58.112Z,54.80
2022-09-10T17:13:26.138Z,54.96
2022-09-10T17:15:54.863Z,55.03
2022-09-10T17:18:22.836Z,55.00
2022-09-10T17:20:50.733Z,54.94
2022-09-10T17:23:18.703Z,55.21
2022-09-10T17:25:48.343Z,55.26
2022-09-10T17:28:16.671Z,55.18
2022-09-10T17:30:45.601Z,55.20
2022-09-10T17:33:13.526Z,55.17
2022-09-10T17:35:41.410Z,55.22
2022-09-10T17:38:09.754Z,55.23
2022-09-10T17:40:38.423Z,55.13
2022-09-10T17:43:08.371Z,55.36
2022-09-10T17:45:38.108Z,55.39
2022-09-10T17:48:05.998Z,55.33
2022-09-10T17:50:33.928Z,55.39
2022-09-10T17:53:02.320Z,55.44
2022-09-10T17:55:33.793Z,55.61
2022-09-10T17:58:01.784Z,55.59
2022-09-10T18:00:31.093Z,55.80
2022-09-10T18:02:59.044Z,55.93
2022-09-10T18:05:27.141Z,55.98
2022-09-10T18:07:55.038Z,55.97
2022-09-10T18:10:23.430Z,55.97
2022-09-10T18:12:51.304Z,55.90
2022-09-10T18:15:19.694Z,56.14
2022-09-10T18:17:49.894Z,56.04
2022-09-10T18:20:17.996Z,56.20
2022-09-10T18:22:45.895Z,56.15
2022-09-10T18:25:13.801Z,56.36
2022-09-10T18:27:43.283Z,56.39
2022-09-10T18:30:12.177Z,56.22
2022-09-10T18:32:40.101Z,56.20
2022-09-10T18:35:09.895Z,56.31
2022-09-10T18:37:37.797Z,56.29
2022-09-10T18:40:07.214Z,56.40
2022-09-10T18:42:35.151Z,56.44
2022-09-10T18:45:03.824Z,56.39
2022-09-10T18:47:44.615Z,56.66
2022-09-10T18:50:14.389Z,56.59
2022-09-10T18:52:42.429Z,56.66
2022-09-10T18:55:10.812Z,56.51
2022-09-10T18:57:38.696Z,56.54
2022-09-10T19:00:07.537Z,56.67
2022-09-10T19:02:35.502Z,56.88
2022-09-10T19:05:12.408Z,56.69
2022-09-10T19:07:41.969Z,56.65
2022-09-10T19:10:09.944Z,56.62
2022-09-10T19:12:37.813Z,56.71
2022-09-10T19:15:06.302Z,56.93
2022-09-10T19:17:34.364Z,56.80
2022-09-10T19:20:02.356Z,56.96
2022-09-10T19:22:30.303Z,57.09
2022-09-10T19:24:59.584Z,57.21
2022-09-10T19:27:29.051Z,57.00
2022-09-10T19:29:56.912Z,56.88
2022-09-10T19:32:24.958Z,57.16
2022-09-10T19:34:52.869Z,56.97
2022-09-10T19:37:20.970Z,56.94
2022-09-10T19:39:49.123Z,57.42
2022-09-10T19:42:18.733Z,57.05
2022-09-10T19:44:46.657Z,57.14
2022-09-10T19:47:14.537Z,57.33
2022-09-10T19:49:42.417Z,57.17
2022-09-10T19:52:11.167Z,57.55
2022-09-10T19:54:39.121Z,57.29
2022-09-10T19:57:07.025Z,57.28
2022-09-10T19:59:36.329Z,57.24
2022-09-10T20:02:04.375Z,57.29
2022-09-10T20:04:33.139Z,57.47
2022-09-10T20:07:01.029Z,57.35
2022-09-10T20:09:28.912Z,57.24
2022-09-10T20:11:56.830Z,57.24
2022-09-10T20:14:25.420Z,57.37
2022-09-10T20:16:54.988Z,57.50
2022-09-10T20:19:22.854Z,57.44
2022-09-10T20:21:51.551Z,57.64
2022-09-10T20:24:19.438Z,57.83
2022-09-10T20:26:48.956Z,57.44
2022-09-10T20:29:17.931Z,57.66
2022-09-10T20:31:46.289Z,57.49
2022-09-10T20:34:16.462Z,57.95
2022-09-10T20:36:44.384Z,57.78
2022-09-10T20:39:13.637Z,57.47
2022-09-10T20:41:41.612Z,57.56
2022-09-10T20:44:09.625Z,57.76
2022-09-10T20:46:37.995Z,57.90
2022-09-10T20:49:05.937Z,57.86
2022-09-10T20:51:36.478Z,58.01
2022-09-10T20:54:04.420Z,58.02
2022-09-10T20:56:32.336Z,57.84
2022-09-10T20:59:01.912Z,57.95
2022-09-10T21:01:31.148Z,58.12
2022-09-10T21:04:00.230Z,57.90
2022-09-10T21:06:29.173Z,57.95
2022-09-10T21:08:58.568Z,58.02
2022-09-10T21:11:27.545Z,57.84
2022-09-10T21:13:56.196Z,57.95
2022-09-10T21:16:25.219Z,58.06
2022-09-10T21:18:55.048Z,57.77
2022-09-10T21:21:25.736Z,58.05
2022-09-10T21:23:54.447Z,57.82
2022-09-10T21:26:25.149Z,57.82
2022-09-10T21:28:55.992Z,57.92
2022-09-10T21:31:24.006Z,58.08
2022-09-10T21:33:52.104Z,58.07
2022-09-10T21:36:21.067Z,57.88
2022-09-10T21:38:49.138Z,57.91
2022-09-10T21:41:17.836Z,58.17
2022-09-10T21:43:47.660Z,57.83
2022-09-10T21:46:15.992Z,57.84
2022-09-10T21:48:44.314Z,58.06
2022-09-10T21:51:13.237Z,57.95
2022-09-10T21:53:41.530Z,58.17
2022-09-10T21:56:09.433Z,57.85
2022-09-10T21:58:37.626Z,58.16
2022-09-10T22:01:11.833Z,58.03
2022-09-10T22:03:39.947Z,57.85
2022-09-10T22:06:08.490Z,57.94
2022-09-10T22:08:36.757Z,57.92
2022-09-10T22:11:08.896Z,58.09
2022-09-10T22:13:37.799Z,58.03
2022-09-10T22:16:06.436Z,57.94
2022-09-10T22:18:35.817Z,57.98
2022-09-10T22:21:03.762Z,58.25
2022-09-10T22:23:32.715Z,57.85
2022-09-10T22:26:04.802Z,58.16
2022-09-10T22:28:34.950Z,58.19
2022-09-10T22:31:10.504Z,58.10
2022-09-10T22:33:40.253Z,58.15
2022-09-10T22:36:12.623Z,57.92
2022-09-10T22:38:41.400Z,58.04
2022-09-10T22:41:10.244Z,58.03
2022-09-10T22:43:38.639Z,58.19
2022-09-10T22:46:07.858Z,58.41
2022-09-10T22:48:37.691Z,58.18
2022-09-10T22:51:07.187Z,58.08
2022-09-10T22:53:35.123Z,58.29
2022-09-10T22:56:03.383Z,58.39
2022-09-10T22:58:32.928Z,58.28
2022-09-10T23:01:04.165Z,58.07
2022-09-10T23:03:32.149Z,58.24
2022-09-10T23:06:06.148Z,58.05
2022-09-10T23:08:36.087Z,58.08
2022-09-10T23:11:11.404Z,58.08
2022-09-10T23:13:39.417Z,58.25
2022-09-10T23:16:12.353Z,58.03
2022-09-10T23:18:40.551Z,58.24
2022-09-10T23:21:08.680Z,58.17
2022-09-10T23:23:37.980Z,58.16
2022-09-10T23:26:07.141Z,58.04
2022-09-10T23:28:35.015Z,58.13
2022-09-10T23:31:10.673Z,58.03
2022-09-10T23:33:38.597Z,58.32
2022-09-10T23:36:07.257Z,58.36
2022-09-10T23:38:37.169Z,58.34
2022-09-10T23:41:05.075Z,58.22
2022-09-10T23:43:33.124Z,58.13
2022-09-10T23:46:01.098Z,58.28
2022-09-10T23:48:29.697Z,58.23
2022-09-10T23:50:57.830Z,58.11
2022-09-10T23:53:26.251Z,58.05
2022-09-10T23:55:55.658Z,57.98
2022-09-10T23:58:23.550Z,57.94
